Time;durP1;ratioP1;P1;durP2;ratioP2;P2;SDS_P1;SDS_P2;PMS_P1;PMS_P2;Temp;Humidity;BMP_temperature;BMP_pressure;BME280_temperature;BME280_humidity;BME280_pressure;Samples;Min_cycle;Max_cycle;Signal;HPM_P1;HPM_P2
2023/05/20 00:04:26;;;;;;;4.57;3.80;;;;;;;11.30;100.00;98972.47;15270227;19;20054;-44
2023/05/20 00:09:51;;;;;;;4.20;3.80;;;;;;;11.30;100.00;98970.63;15265950;19;20371;-45
2023/05/20 00:15:20;;;;;;;5.07;3.90;;;;;;;11.31;100.00;98966.94;15272530;19;20430;-43
2023/05/20 00:20:45;;;;;;;4.53;3.85;;;;;;;11.31;100.00;98966.06;15260438;19;20029;-43
2023/05/20 00:26:10;;;;;;;6.30;4.22;;;;;;;11.27;100.00;98959.28;15272600;19;20347;-45
2023/05/20 00:31:40;;;;;;;5.50;4.05;;;;;;;11.28;100.00;98959.13;15271502;19;20002;-43
2023/05/20 00:37:12;;;;;;;6.50;4.00;;;;;;;11.24;100.00;98955.91;15267741;19;20033;-45
2023/05/20 00:42:38;;;;;;;4.72;4.10;;;;;;;11.23;100.00;98961.47;15267351;19;20022;-43
2023/05/20 00:48:05;;;;;;;5.15;4.28;;;;;;;11.19;100.00;98947.41;15266637;19;20540;-44
2023/05/20 00:53:31;;;;;;;5.22;4.40;;;;;;;11.18;100.00;98958.34;15260697;19;20018;-43
2023/05/20 00:58:56;;;;;;;4.95;4.43;;;;;;;11.13;100.00;98956.13;15267879;19;20010;-43
2023/05/20 01:04:23;;;;;;;5.70;4.50;;;;;;;11.10;100.00;98946.50;15264467;19;20021;-42
2023/05/20 01:09:48;;;;;;;6.10;4.53;;;;;;;11.08;100.00;98942.22;15262184;19;20023;-43
2023/05/20 01:15:14;;;;;;;5.90;4.70;;;;;;;11.05;100.00;98940.69;15267367;19;20077;-44
2023/05/20 01:20:44;;;;;;;6.07;4.28;;;;;;;11.03;100.00;98933.75;15259974;19;20500;-42
2023/05/20 01:26:12;;;;;;;5.55;4.22;;;;;;;11.00;100.00;98939.44;15264132;19;20035;-42
2023/05/20 01:31:41;;;;;;;5.75;4.07;;;;;;;10.97;100.00;98948.69;15263599;19;20014;-43
2023/05/20 01:37:08;;;;;;;5.85;4.32;;;;;;;10.94;100.00;98933.66;15265014;19;20102;-45
2023/05/20 01:42:37;;;;;;;5.22;4.03;;;;;;;10.89;100.00;98927.88;15263633;19;20082;-47
2023/05/20 01:48:03;;;;;;;5.63;4.35;;;;;;;10.89;100.00;98944.06;15266011;19;20018;-44
2023/05/20 01:53:28;;;;;;;5.28;4.47;;;;;;;10.87;100.00;98969.47;15268034;19;20018;-43
2023/05/20 01:58:55;;;;;;;5.90;4.70;;;;;;;10.91;100.00;98989.72;15255483;19;20022;-43
2023/05/20 02:04:21;;;;;;;5.55;4.40;;;;;;;10.88;100.00;98968.44;15261898;19;20014;-44
2023/05/20 02:09:47;;;;;;;5.72;4.47;;;;;;;10.86;100.00;98957.81;15260081;19;20021;-42
2023/05/20 02:15:16;;;;;;;5.65;4.68;;;;;;;10.85;100.00;98950.72;15262385;19;20006;-43
2023/05/20 02:20:41;;;;;;;6.95;5.10;;;;;;;10.85;100.00;98957.97;15259205;19;20010;-42
2023/05/20 02:26:06;;;;;;;6.55;4.88;;;;;;;10.85;100.00;98953.44;15281331;19;20028;-44
2023/05/20 02:31:34;;;;;;;6.70;5.20;;;;;;;10.86;100.00;98949.72;15279071;19;20016;-43
2023/05/20 02:36:59;;;;;;;5.68;4.75;;;;;;;10.85;100.00;98944.50;15278573;19;20078;-43
2023/05/20 02:42:24;;;;;;;6.25;5.10;;;;;;;10.84;100.00;98946.34;15276467;19;20010;-44
2023/05/20 02:47:53;;;;;;;5.65;5.10;;;;;;;10.84;100.00;98938.25;15273980;19;20033;-42
2023/05/20 02:53:17;;;;;;;7.13;5.35;;;;;;;10.84;100.00;98949.03;15281134;19;20006;-44
2023/05/20 02:58:42;;;;;;;8.38;5.32;;;;;;;10.84;100.00;98957.13;15270488;19;20018;-43
2023/05/20 03:04:10;;;;;;;6.05;5.28;;;;;;;10.85;100.00;98948.03;15275941;19;20031;-44
2023/05/20 03:09:36;;;;;;;5.97;5.25;;;;;;;10.81;100.00;98941.28;15275696;19;20015;-45
2023/05/20 03:15:02;;;;;;;6.85;5.43;;;;;;;10.81;100.00;98938.56;15278108;19;20633;-42
2023/05/20 03:20:31;;;;;;;7.32;5.50;;;;;;;10.79;100.00;98936.00;15268747;19;20471;-47
2023/05/20 03:25:57;;;;;;;6.30;5.20;;;;;;;10.81;100.00;98935.00;15280373;19;20014;-44
2023/05/20 03:31:23;;;;;;;6.68;5.47;;;;;;;10.77;100.00;98935.31;15279796;19;20035;-45
2023/05/20 03:36:50;;;;;;;5.97;4.82;;;;;;;10.78;100.00;98920.84;15287096;19;20047;-43
2023/05/20 03:42:16;;;;;;;6.38;5.40;;;;;;;10.75;100.00;98923.84;15284659;19;20019;-47
2023/05/20 03:47:42;;;;;;;7.15;5.07;;;;;;;10.77;100.00;98921.81;15281557;19;20360;-45
2023/05/20 03:53:10;;;;;;;6.28;5.68;;;;;;;10.77;100.00;98929.09;15283929;19;20011;-46
2023/05/20 03:58:37;;;;;;;6.75;5.65;;;;;;;10.79;100.00;98927.09;15273830;19;20021;-43
2023/05/20 04:04:02;;;;;;;7.80;5.60;;;;;;;10.78;100.00;98926.22;15264493;19;20014;-43
2023/05/20 04:09:29;;;;;;;7.57;5.70;;;;;;;10.84;100.00;98930.16;15267662;19;20054;-42
2023/05/20 04:14:54;;;;;;;8.20;5.65;;;;;;;10.87;100.00;98940.66;15270574;19;20011;-44
2023/05/20 04:20:34;;;;;;;7.60;5.72;;;;;;;10.91;100.00;98955.53;15264884;19;20046;-45
2023/05/20 04:26:03;;;;;;;6.78;5.80;;;;;;;10.94;100.00;98967.84;15264395;19;20011;-45
2023/05/20 04:31:27;;;;;;;7.05;6.03;;;;;;;10.96;100.00;98971.25;15270101;19;20036;-46
2023/05/20 04:36:52;;;;;;;7.78;6.90;;;;;;;10.97;100.00;98970.25;15266560;19;20023;-43
2023/05/20 04:42:21;;;;;;;7.55;6.85;;;;;;;11.00;100.00;98967.25;15268109;19;20341;-42
2023/05/20 04:47:45;;;;;;;9.60;7.45;;;;;;;11.01;100.00;98962.72;15270005;19;20014;-45
2023/05/20 04:53:10;;;;;;;8.82;7.75;;;;;;;11.04;100.00;98974.03;15272154;19;20388;-44
2023/05/20 04:58:45;;;;;;;9.52;7.95;;;;;;;11.09;100.00;98971.75;15266478;19;20036;-43
2023/05/20 05:04:10;;;;;;;10.18;8.18;;;;;;;11.09;100.00;98950.19;15266794;19;20007;-44
2023/05/20 05:09:35;;;;;;;8.98;8.07;;;;;;;11.12;100.00;98953.56;15255252;19;20047;-44
2023/05/20 05:15:02;;;;;;;9.75;8.75;;;;;;;11.14;100.00;98949.72;15260297;19;20094;-44
2023/05/20 05:20:29;;;;;;;9.18;8.27;;;;;;;11.15;100.00;98948.72;15256835;19;20778;-44
2023/05/20 05:25:54;;;;;;;9.18;8.20;;;;;;;11.14;100.00;98940.78;15256849;19;20015;-43
2023/05/20 05:31:22;;;;;;;9.70;8.70;;;;;;;11.15;100.00;98946.03;15253610;19;20507;-43
2023/05/20 06:38:42;;;;;;;6.80;6.07;;;;;;;12.06;100.00;98951.38;15214952;19;20006;-44
2023/05/20 06:44:08;;;;;;;7.10;6.20;;;;;;;12.18;100.00;98940.19;15263104;19;20018;-50
2023/05/20 06:49:56;;;;;;;5.93;5.43;;;;;;;12.29;100.00;98941.75;15267754;19;20018;-46
2023/05/20 06:55:25;;;;;;;6.75;5.97;;;;;;;12.37;100.00;98932.03;15269196;19;20046;-44
2023/05/20 07:00:50;;;;;;;6.05;5.45;;;;;;;12.47;100.00;98924.66;15260371;19;20365;-46
2023/05/20 07:06:15;;;;;;;6.40;5.80;;;;;;;12.60;100.00;98910.66;15260798;19;20015;-45
2023/05/20 07:11:43;;;;;;;7.22;5.88;;;;;;;12.67;100.00;98908.16;15264339;19;20010;-44
2023/05/20 07:17:08;;;;;;;6.25;5.65;;;;;;;12.75;100.00;98897.41;15266660;19;20015;-44
2023/05/20 07:22:34;;;;;;;6.03;5.20;;;;;;;12.84;100.00;98888.31;15272909;19;20007;-48
2023/05/20 07:28:07;;;;;;;6.40;5.57;;;;;;;12.91;100.00;98875.81;15265949;19;20097;-48
2023/05/20 07:33:33;;;;;;;6.78;5.40;;;;;;;13.04;100.00;98879.91;15270996;19;20006;-48
2023/05/20 07:39:05;;;;;;;5.60;5.10;;;;;;;13.09;100.00;98877.56;15261678;19;20027;-45
2023/05/20 07:44:35;;;;;;;6.05;4.85;;;;;;;13.16;100.00;98864.22;15266445;19;20022;-46
2023/05/20 07:50:01;;;;;;;7.18;5.18;;;;;;;13.23;100.00;98871.47;15258755;19;20522;-46
2023/05/20 07:55:26;;;;;;;5.25;4.75;;;;;;;13.30;100.00;98868.09;15268523;19;20018;-47
2023/05/20 08:00:54;;;;;;;5.25;4.65;;;;;;;13.45;100.00;98862.88;15264230;19;20019;-45
2023/05/20 08:06:23;;;;;;;6.00;5.03;;;;;;;13.46;100.00;98848.34;15271842;19;20054;-46
2023/05/20 08:11:50;;;;;;;5.30;4.80;;;;;;;13.48;100.00;98838.19;15268098;19;20331;-46
2023/05/20 08:17:17;;;;;;;5.75;4.97;;;;;;;13.47;100.00;98848.16;15266449;19;20019;-46
2023/05/20 08:22:43;;;;;;;6.15;5.55;;;;;;;13.54;100.00;98854.59;15260802;19;20042;-47
2023/05/20 08:28:08;;;;;;;7.70;5.20;;;;;;;13.67;100.00;98845.13;15266241;19;20014;-46
2023/05/20 08:33:37;;;;;;;5.97;4.95;;;;;;;13.79;100.00;98857.28;15263631;19;20501;-45
2023/05/20 08:39:08;;;;;;;5.30;4.80;;;;;;;14.01;100.00;98853.00;15263279;19;20014;-46
2023/05/20 08:44:34;;;;;;;6.72;5.00;;;;;;;14.28;100.00;98856.31;15263389;19;20015;-47
2023/05/20 08:50:03;;;;;;;7.25;4.97;;;;;;;14.57;100.00;98860.28;15262198;19;20022;-46
2023/05/20 08:55:32;;;;;;;5.13;4.65;;;;;;;14.79;100.00;98845.09;15252863;19;20059;-45
2023/05/20 09:01:01;;;;;;;5.22;4.72;;;;;;;15.04;100.00;98839.53;15257097;19;20029;-53
2023/05/20 09:06:30;;;;;;;5.38;4.75;;;;;;;15.22;100.00;98846.56;15256216;19;20469;-47
2023/05/20 09:12:13;;;;;;;5.90;4.53;;;;;;;15.55;100.00;98832.69;15255859;19;20007;-47
2023/05/20 09:17:39;;;;;;;5.43;4.90;;;;;;;15.76;100.00;98823.81;15255813;19;20364;-47
2023/05/20 09:23:08;;;;;;;6.10;4.63;;;;;;;15.85;100.00;98808.31;15258000;19;20435;-48
2023/05/20 09:28:37;;;;;;;4.63;4.22;;;;;;;15.98;100.00;98799.53;15249725;19;20019;-47
2023/05/20 09:34:01;;;;;;;7.18;4.43;;;;;;;16.08;100.00;98801.97;15273098;19;20002;-49
2023/05/20 09:39:41;;;;;;;5.68;4.40;;;;;;;16.10;100.00;98786.31;15268126;19;20025;-47
2023/05/20 09:45:11;;;;;;;7.18;4.53;;;;;;;16.38;100.00;98789.19;15267405;19;20074;-47
2023/05/20 09:50:37;;;;;;;6.20;4.63;;;;;;;16.32;100.00;98782.63;15270479;19;20225;-46
2023/05/20 09:56:05;;;;;;;6.03;4.78;;;;;;;16.39;100.00;98780.00;15275590;19;20007;-47
2023/05/20 10:01:29;;;;;;;6.30;4.63;;;;;;;16.53;100.00;98772.84;15264628;19;20014;-51
2023/05/20 10:07:10;;;;;;;5.63;4.38;;;;;;;16.63;100.00;98770.69;15270302;19;20043;-50
2023/05/20 10:12:52;;;;;;;6.10;4.80;;;;;;;16.87;100.00;98757.75;15275151;19;20039;-50
2023/05/20 10:18:32;;;;;;;7.60;4.80;;;;;;;17.12;100.00;98754.63;15268662;19;20021;-50
2023/05/20 10:23:56;;;;;;;5.28;4.50;;;;;;;17.31;100.00;98746.84;15269243;19;20379;-50
2023/05/20 10:29:24;;;;;;;5.43;4.80;;;;;;;17.46;100.00;98739.44;15268902;19;20025;-53
2023/05/20 10:34:57;;;;;;;5.65;4.60;;;;;;;17.65;100.00;98740.59;15272051;19;20120;-52
2023/05/20 10:40:23;;;;;;;6.93;4.40;;;;;;;17.84;100.00;98730.03;15266300;19;20030;-48
2023/05/20 10:46:01;;;;;;;8.75;4.70;;;;;;;17.93;100.00;98719.81;15268734;19;20039;-50
2023/05/20 10:51:39;;;;;;;5.70;4.45;;;;;;;18.05;100.00;98733.72;15267794;19;20042;-48
2023/05/20 10:57:04;;;;;;;5.00;4.50;;;;;;;18.16;100.00;98714.94;15273305;19;20027;-50
2023/05/20 11:02:33;;;;;;;5.05;4.05;;;;;;;18.27;100.00;98708.03;15263916;19;20056;-45
2023/05/20 11:07:57;;;;;;;5.35;4.40;;;;;;;18.34;100.00;98699.88;15262055;19;20024;-49
2023/05/20 11:13:42;;;;;;;6.57;4.10;;;;;;;18.69;100.00;98705.19;15266710;19;20006;-47
2023/05/20 11:19:09;;;;;;;6.22;4.07;;;;;;;19.03;100.00;98710.75;15264500;19;20837;-45
2023/05/20 11:24:35;;;;;;;5.75;4.50;;;;;;;19.16;100.00;98701.69;15263368;19;20502;-47
2023/05/20 11:29:59;;;;;;;5.80;4.60;;;;;;;19.28;100.00;98700.03;15266093;19;20021;-54
2023/05/20 11:35:29;;;;;;;6.68;4.68;;;;;;;19.31;100.00;98690.56;15266564;19;20015;-48
2023/05/20 11:41:02;;;;;;;10.65;4.75;;;;;;;19.35;100.00;98686.34;15235893;19;20018;-45
2023/05/20 11:46:27;;;;;;;5.85;4.55;;;;;;;19.18;100.00;98692.25;15264609;19;20029;-44
2023/05/20 11:51:54;;;;;;;6.68;4.80;;;;;;;18.90;100.00;98685.09;15260838;19;20082;-46
2023/05/20 11:57:19;;;;;;;5.68;4.90;;;;;;;18.66;100.00;98689.22;15259745;19;20021;-44
2023/05/20 12:02:43;;;;;;;6.25;5.40;;;;;;;18.51;100.00;98691.31;15265561;19;20021;-45
2023/05/20 12:08:11;;;;;;;6.32;4.60;;;;;;;18.40;100.00;98692.75;15254123;19;20470;-45
2023/05/20 12:13:35;;;;;;;6.10;4.80;;;;;;;18.38;100.00;98684.78;15264570;19;20015;-44
2023/05/20 12:19:00;;;;;;;7.85;4.78;;;;;;;18.31;100.00;98679.31;15262000;19;20045;-43
2023/05/20 12:24:27;;;;;;;7.57;4.50;;;;;;;18.30;100.00;98679.50;15259551;19;20030;-44
2023/05/20 12:29:51;;;;;;;5.35;4.60;;;;;;;18.23;100.00;98670.47;15253615;19;20014;-45
2023/05/20 12:35:18;;;;;;;8.00;4.80;;;;;;;18.14;100.00;98669.81;15262742;19;20085;-44
2023/05/20 12:40:52;;;;;;;5.10;4.60;;;;;;;18.38;100.00;98671.16;15251504;19;20466;-45
2023/05/20 12:46:17;;;;;;;8.85;4.63;;;;;;;18.79;100.00;98661.13;15261547;19;20011;-46
2023/05/20 12:51:41;;;;;;;6.72;4.80;;;;;;;18.94;100.00;98659.06;15257945;19;20018;-45
2023/05/20 12:57:09;;;;;;;6.32;4.45;;;;;;;19.09;100.00;98655.28;15256458;19;20619;-45
2023/05/20 13:02:34;;;;;;;4.43;3.88;;;;;;;19.43;100.00;98649.78;15260798;19;20025;-44
2023/05/20 13:07:59;;;;;;;6.95;4.60;;;;;;;19.76;100.00;98637.91;15254948;19;20021;-44
2023/05/20 13:13:28;;;;;;;5.78;4.10;;;;;;;20.23;100.00;98627.63;15253553;19;20036;-46
2023/05/20 13:18:53;;;;;;;4.97;3.95;;;;;;;20.20;100.00;98629.97;15259392;19;20032;-45
2023/05/20 13:24:18;;;;;;;5.55;3.80;;;;;;;20.38;100.00;98623.75;15258587;19;20359;-45
2023/05/20 13:29:45;;;;;;;6.25;3.88;;;;;;;20.44;100.00;98622.88;15256161;19;20015;-49
2023/05/20 13:35:11;;;;;;;5.65;4.22;;;;;;;20.77;100.00;98605.38;15258356;19;20477;-44
2023/05/20 13:40:43;;;;;;;5.30;3.70;;;;;;;21.08;100.00;98598.19;15254956;19;20082;-43
2023/05/20 13:46:10;;;;;;;5.10;3.78;;;;;;;21.34;100.00;98585.28;15251059;19;20014;-43
2023/05/20 13:51:35;;;;;;;5.63;3.70;;;;;;;21.57;100.00;98581.84;15253074;19;20046;-44
2023/05/20 13:57:00;;;;;;;6.82;3.50;;;;;;;21.85;100.00;98575.81;15259704;19;20011;-45
2023/05/20 14:02:27;;;;;;;10.43;3.95;;;;;;;22.10;100.00;98561.13;15257204;19;20006;-45
2023/05/20 14:07:53;;;;;;;6.18;3.40;;;;;;;22.30;100.00;98569.06;15252640;19;20024;-44
2023/05/20 14:13:17;;;;;;;5.10;3.83;;;;;;;22.50;100.00;98550.66;15257089;19;20367;-44
2023/05/20 14:18:44;;;;;;;7.22;3.45;;;;;;;22.55;100.00;98537.03;15253691;19;20240;-44
2023/05/20 14:24:09;;;;;;;4.03;3.65;;;;;;;22.65;100.00;98530.97;15270550;19;20022;-44
2023/05/20 14:29:34;;;;;;;4.20;3.80;;;;;;;22.67;100.00;98535.13;15269696;19;20014;-44
2023/05/20 14:35:01;;;;;;;5.32;3.35;;;;;;;22.82;100.00;98522.84;15268049;19;20017;-44
2023/05/20 14:40:33;;;;;;;3.95;3.38;;;;;;;22.88;100.00;98519.13;15266308;19;20245;-44
2023/05/20 14:45:58;;;;;;;4.00;3.60;;;;;;;22.98;100.00;98518.53;15268960;19;20399;-47
2023/05/20 14:51:25;;;;;;;4.68;3.60;;;;;;;23.29;100.00;98514.59;15258386;19;20025;-43
2023/05/20 14:56:51;;;;;;;5.15;3.33;;;;;;;22.87;100.00;98496.34;15269972;19;20371;-43
2023/05/20 15:02:16;;;;;;;6.50;4.07;;;;;;;23.04;100.00;98499.19;15269500;19;20010;-46
2023/05/20 15:07:43;;;;;;;5.20;3.33;;;;;;;22.94;100.00;98507.22;15262526;19;20017;-45
2023/05/20 15:13:08;;;;;;;5.63;3.63;;;;;;;22.94;100.00;98493.47;15268343;19;20106;-43
2023/05/20 15:18:33;;;;;;;7.22;3.80;;;;;;;22.90;100.00;98490.38;15267812;19;20626;-45
2023/05/20 15:24:00;;;;;;;4.55;3.40;;;;;;;22.82;100.00;98493.47;15258155;19;20024;-45
2023/05/20 15:29:32;;;;;;;7.60;3.35;;;;;;;22.63;100.00;98490.03;15261553;19;20352;-45
2023/05/20 15:34:58;;;;;;;5.43;3.58;;;;;;;22.64;100.00;98497.16;15268205;19;20025;-45
2023/05/20 15:40:25;;;;;;;6.45;3.40;;;;;;;22.42;100.00;98484.03;15259000;19;20014;-44
2023/05/20 15:45:50;;;;;;;5.47;3.20;;;;;;;22.40;100.00;98479.81;15266911;19;20016;-44
2023/05/20 15:51:14;;;;;;;7.88;3.00;;;;;;;22.55;100.00;98466.50;15260232;19;20024;-47
2023/05/20 15:56:41;;;;;;;4.80;3.30;;;;;;;22.49;100.00;98461.13;15264865;19;20010;-45
2023/05/20 16:02:06;;;;;;;4.85;3.47;;;;;;;22.49;100.00;98461.13;15262202;19;20024;-43
2023/05/20 16:07:32;;;;;;;3.90;3.00;;;;;;;22.47;100.00;98459.47;15259818;19;20014;-43
2023/05/20 16:13:00;;;;;;;6.70;3.00;;;;;;;22.62;100.00;98441.69;15260126;19;20018;-43
2023/05/20 16:18:28;;;;;;;6.57;3.00;;;;;;;22.29;100.00;98430.19;15263213;19;20050;-45
2023/05/20 16:23:54;;;;;;;6.80;3.03;;;;;;;22.29;100.00;98437.56;15260095;19;20922;-43
2023/05/20 16:29:21;;;;;;;4.05;2.95;;;;;;;21.93;100.00;98420.25;15257862;19;20013;-43
2023/05/20 16:34:46;;;;;;;4.03;2.72;;;;;;;21.69;100.00;98420.19;15261770;19;20018;-45
2023/05/20 16:40:18;;;;;;;4.88;2.80;;;;;;;21.58;100.00;98418.22;15257952;19;20018;-44
2023/05/20 16:45:46;;;;;;;5.22;2.65;;;;;;;21.49;100.00;98415.78;15260759;19;20014;-44
2023/05/20 16:51:10;;;;;;;4.20;2.70;;;;;;;21.39;100.00;98420.97;15258031;19;20696;-44
2023/05/20 16:56:35;;;;;;;3.92;2.65;;;;;;;21.22;100.00;98426.25;15255302;19;20489;-46
2023/05/20 17:02:02;;;;;;;4.82;2.63;;;;;;;21.13;100.00;98423.00;15260946;19;20353;-48
2023/05/20 17:07:27;;;;;;;3.50;2.50;;;;;;;20.96;100.00;98419.22;15257259;19;20010;-45
2023/05/20 17:12:51;;;;;;;4.55;2.70;;;;;;;20.73;100.00;98424.28;15259478;19;20015;-45
2023/05/20 17:18:19;;;;;;;5.70;2.50;;;;;;;20.60;100.00;98429.88;15257265;19;20007;-48
2023/05/20 17:23:43;;;;;;;4.22;2.40;;;;;;;20.48;100.00;98443.50;15260774;19;20024;-46
2023/05/20 17:29:08;;;;;;;5.40;2.53;;;;;;;20.35;100.00;98449.91;15251988;19;20015;-47
2023/05/20 17:34:35;;;;;;;3.33;2.38;;;;;;;20.22;100.00;98453.59;15261442;19;20028;-43
2023/05/20 17:40:07;;;;;;;6.85;2.63;;;;;;;20.14;100.00;98451.16;15256585;19;20022;-47
2023/05/20 17:45:32;;;;;;;4.95;2.70;;;;;;;20.01;100.00;98450.19;15260290;19;20099;-46
2023/05/20 17:50:59;;;;;;;3.55;2.63;;;;;;;19.92;100.00;98447.94;15252177;19;20609;-46
2023/05/20 17:56:25;;;;;;;3.17;2.70;;;;;;;19.77;100.00;98464.66;15272695;19;20016;-44
2023/05/20 18:01:49;;;;;;;5.40;2.70;;;;;;;19.66;100.00;98468.91;15261427;19;20028;-44
2023/05/20 18:07:19;;;;;;;4.72;3.05;;;;;;;19.52;100.00;98463.50;15269167;19;20022;-45
2023/05/20 18:12:44;;;;;;;3.88;2.72;;;;;;;19.37;100.00;98469.25;15269443;19;20014;-46
2023/05/20 18:18:10;;;;;;;5.00;2.92;;;;;;;19.26;100.00;98478.13;15269750;19;20448;-48
2023/05/20 18:23:37;;;;;;;6.63;3.05;;;;;;;19.17;100.00;98487.63;15270999;19;20014;-47
2023/05/20 18:29:02;;;;;;;3.47;2.80;;;;;;;19.06;100.00;98481.78;15265519;19;20017;-42
2023/05/20 18:34:27;;;;;;;4.88;3.03;;;;;;;18.94;100.00;98494.44;15264157;19;20013;-45
2023/05/20 18:39:56;;;;;;;3.72;3.33;;;;;;;18.81;100.00;98483.50;15267578;19;20018;-44
2023/05/20 18:45:23;;;;;;;7.38;3.03;;;;;;;18.70;100.00;98490.47;15269875;19;21350;-43
2023/05/20 18:50:48;;;;;;;7.30;2.88;;;;;;;18.57;100.00;98483.13;15261857;19;20017;-44
2023/05/20 18:56:16;;;;;;;4.13;3.10;;;;;;;18.43;100.00;98493.22;15271194;19;20025;-46
2023/05/20 19:01:41;;;;;;;3.65;3.30;;;;;;;18.27;100.00;98486.31;15260328;19;20021;-46
2023/05/20 19:07:05;;;;;;;3.75;3.25;;;;;;;18.13;100.00;98485.44;15258633;19;20038;-46
2023/05/20 19:12:34;;;;;;;6.13;3.30;;;;;;;17.96;100.00;98479.50;15263853;19;20010;-44
2023/05/20 19:18:00;;;;;;;5.15;3.50;;;;;;;17.80;100.00;98487.06;15263773;19;20379;-44
2023/05/20 19:23:25;;;;;;;4.97;3.53;;;;;;;17.68;100.00;98491.44;15262763;19;20018;-45
2023/05/20 19:28:52;;;;;;;3.70;3.40;;;;;;;17.53;100.00;98494.31;15260822;19;20010;-45
2023/05/20 19:34:17;;;;;;;4.20;3.80;;;;;;;17.39;100.00;98499.72;15265944;19;20015;-45
2023/05/20 19:39:41;;;;;;;4.65;3.92;;;;;;;17.24;100.00;98499.03;15264318;19;20353;-46
2023/05/20 19:45:10;;;;;;;4.60;3.85;;;;;;;17.15;100.00;98511.97;15274022;19;20045;-44
2023/05/20 19:50:35;;;;;;;4.18;3.78;;;;;;;17.02;100.00;98503.72;15268901;19;20022;-44
2023/05/20 19:56:00;;;;;;;6.32;4.18;;;;;;;16.97;100.00;98519.84;15271519;19;20390;-45
2023/05/20 20:01:27;;;;;;;6.82;4.07;;;;;;;16.90;100.00;98520.59;15269267;19;20754;-44
2023/05/20 20:06:52;;;;;;;4.63;3.72;;;;;;;16.85;100.00;98519.50;15272473;19;20014;-44
2023/05/20 20:12:16;;;;;;;4.70;4.20;;;;;;;16.71;100.00;98504.97;15265214;19;20078;-44
2023/05/20 20:17:50;;;;;;;5.28;4.20;;;;;;;16.59;100.00;98508.25;15269020;19;20034;-45
2023/05/20 20:23:15;;;;;;;5.28;4.25;;;;;;;16.43;100.00;98511.25;15271471;19;20014;-46
2023/05/20 20:28:40;;;;;;;5.38;4.43;;;;;;;16.28;100.00;98509.50;15266326;19;20482;-44
2023/05/20 20:34:07;;;;;;;6.72;4.60;;;;;;;16.15;100.00;98517.53;15271088;19;20021;-45
2023/05/20 20:39:33;;;;;;;5.72;4.55;;;;;;;16.02;100.00;98521.78;15266987;19;20026;-46
2023/05/20 20:45:01;;;;;;;5.10;4.65;;;;;;;15.94;100.00;98530.03;15259220;19;20602;-51
2023/05/20 20:50:29;;;;;;;7.13;5.07;;;;;;;15.94;100.00;98516.47;15261352;19;20418;-49
2023/05/20 20:55:55;;;;;;;9.30;4.80;;;;;;;15.82;100.00;98526.97;15266152;19;20019;-47
2023/05/20 21:01:20;;;;;;;7.32;4.90;;;;;;;15.78;100.00;98525.69;15261675;19;21117;-48
2023/05/20 21:06:49;;;;;;;6.60;5.20;;;;;;;15.71;100.00;98509.31;15241096;19;20011;-45
2023/05/20 21:12:17;;;;;;;7.03;5.00;;;;;;;15.65;100.00;98509.22;15268197;19;20092;-45
2023/05/20 21:17:41;;;;;;;8.18;5.40;;;;;;;15.60;100.00;98506.25;14752193;19;10001012;-44
2023/05/20 21:23:09;;;;;;;7.07;5.43;;;;;;;15.60;100.00;98501.66;15266787;19;20784;-46
2023/05/20 21:28:34;;;;;;;5.97;5.30;;;;;;;15.50;100.00;98499.28;15272550;19;20018;-47
2023/05/20 21:34:00;;;;;;;7.90;5.30;;;;;;;15.42;100.00;98493.94;15284437;19;20013;-45
2023/05/20 21:39:27;;;;;;;5.90;5.30;;;;;;;15.37;100.00;98499.13;15282665;19;20294;-43
2023/05/20 21:44:52;;;;;;;7.28;5.25;;;;;;;15.30;100.00;98501.75;15281709;19;20018;-47
2023/05/20 21:50:19;;;;;;;8.40;5.93;;;;;;;15.19;100.00;98511.19;15272451;19;20098;-49
2023/05/20 21:55:47;;;;;;;5.72;5.13;;;;;;;15.13;100.00;98503.84;15283511;19;20232;-43
2023/05/20 22:01:13;;;;;;;5.88;5.20;;;;;;;15.01;100.00;98511.59;15280978;19;20017;-44
2023/05/20 22:06:38;;;;;;;7.68;5.10;;;;;;;14.93;100.00;98508.97;15284068;19;20006;-45
2023/05/20 22:12:06;;;;;;;5.68;5.15;;;;;;;14.85;100.00;98507.19;15282869;19;20025;-43
2023/05/20 22:17:32;;;;;;;7.70;5.13;;;;;;;14.81;100.00;98500.47;15281543;19;20025;-44
2023/05/20 22:22:58;;;;;;;6.60;5.40;;;;;;;14.74;100.00;98492.25;15276256;19;20498;-44
2023/05/20 22:28:26;;;;;;;6.47;5.28;;;;;;;14.70;100.00;98496.34;15279981;19;20025;-44
2023/05/20 22:33:50;;;;;;;6.45;5.45;;;;;;;14.64;100.00;98491.66;15283280;19;20479;-43
2023/05/20 22:39:15;;;;;;;7.88;5.68;;;;;;;14.61;100.00;98481.16;15276201;19;20053;-44
2023/05/20 22:44:42;;;;;;;7.13;5.60;;;;;;;14.54;100.00;98485.63;15281075;19;20006;-45
2023/05/20 22:50:12;;;;;;;5.82;5.25;;;;;;;14.48;100.00;98482.66;15277548;19;20018;-45
2023/05/20 22:55:37;;;;;;;5.97;5.38;;;;;;;14.42;100.00;98482.56;15280832;19;20017;-47
2023/05/20 23:01:05;;;;;;;6.28;5.68;;;;;;;14.42;100.00;98475.25;15277014;19;20081;-44
2023/05/20 23:06:30;;;;;;;6.82;6.13;;;;;;;14.38;100.00;98468.53;15281278;19;20367;-44
2023/05/20 23:11:55;;;;;;;6.10;5.50;;;;;;;14.36;100.00;98462.44;15272172;19;20891;-44
2023/05/20 23:17:22;;;;;;;7.50;6.03;;;;;;;14.30;100.00;98457.75;15279100;19;20652;-49
2023/05/20 23:22:47;;;;;;;7.10;6.40;;;;;;;14.27;100.00;98461.69;15275535;19;20337;-45
2023/05/20 23:28:12;;;;;;;6.30;5.70;;;;;;;14.23;100.00;98467.66;15272551;19;20015;-45
2023/05/20 23:33:41;;;;;;;7.60;6.05;;;;;;;14.18;100.00;98463.63;15279742;19;20500;-49
2023/05/20 23:39:06;;;;;;;9.10;6.00;;;;;;;14.15;100.00;98458.59;15272981;19;20026;-46
2023/05/20 23:44:35;;;;;;;6.72;6.03;;;;;;;14.11;100.00;98464.56;15275069;19;20010;-45
2023/05/20 23:50:02;;;;;;;7.03;6.10;;;;;;;14.07;100.00;98453.22;15273689;19;20070;-45
2023/05/20 23:55:27;;;;;;;7.03;6.13;;;;;;;14.03;100.00;98446.50;15272401;19;20474;-45
